createdAt,value
2018-01-04T00:01:31.658Z,13.50
2018-01-04T00:03:59.156Z,13.03
2018-01-04T00:06:26.641Z,8.23
2018-01-04T00:08:54.173Z,6.90
2018-01-04T00:11:21.733Z,10.27
2018-01-04T00:13:49.204Z,8.00
2018-01-04T00:16:16.740Z,12.50
2018-01-04T00:18:44.209Z,9.10
2018-01-04T00:21:11.664Z,6.80
2018-01-04T00:23:39.135Z,13.20
2018-01-04T00:26:06.932Z,7.73
2018-01-04T00:28:34.421Z,12.10
2018-01-04T00:31:01.872Z,12.90
2018-01-04T00:33:29.360Z,14.03
2018-01-04T00:35:56.808Z,7.47
2018-01-04T00:38:24.317Z,15.10
2018-01-04T00:40:51.768Z,8.20
2018-01-04T00:43:19.279Z,5.57
2018-01-04T00:45:46.739Z,13.07
2018-01-04T00:48:14.231Z,26.47
2018-01-04T00:50:41.747Z,11.93
2018-01-04T00:53:09.351Z,17.93
2018-01-04T00:55:36.832Z,12.13
2018-01-04T00:58:04.288Z,18.40
2018-01-04T01:00:31.770Z,12.57
2018-01-04T01:02:59.212Z,8.93
2018-01-04T01:05:26.693Z,12.10
2018-01-04T01:07:54.170Z,11.50
2018-01-04T01:10:21.668Z,21.30
2018-01-04T01:12:49.115Z,14.07
2018-01-04T01:15:16.588Z,15.27
2018-01-04T01:17:44.036Z,7.83
2018-01-04T01:20:11.519Z,15.10
2018-01-04T01:22:38.964Z,13.67
2018-01-04T01:25:06.423Z,20.10
2018-01-04T01:27:33.904Z,17.10
2018-01-04T01:30:01.358Z,15.93
2018-01-04T01:32:28.837Z,26.37
2018-01-04T01:34:56.302Z,8.37
2018-01-04T01:37:23.783Z,13.60
2018-01-04T01:39:51.237Z,21.97
2018-01-04T01:42:18.708Z,7.23
2018-01-04T01:44:46.168Z,12.87
2018-01-04T01:47:13.755Z,12.20
2018-01-04T01:49:41.216Z,15.90
2018-01-04T01:52:08.697Z,11.00
2018-01-04T01:54:36.148Z,15.17
2018-01-04T01:57:03.698Z,8.80
2018-01-04T01:59:31.238Z,9.03
2018-01-04T02:01:58.679Z,6.77
2018-01-04T02:04:26.151Z,11.63
2018-01-04T02:06:53.590Z,21.67
2018-01-04T02:09:21.053Z,9.03
2018-01-04T02:11:48.499Z,6.03
2018-01-04T02:14:15.945Z,6.00
2018-01-04T02:16:43.370Z,5.13
2018-01-04T02:19:22.749Z,8.53
2018-01-04T02:22:02.027Z,10.27
2018-01-04T02:24:41.156Z,6.80
2018-01-04T02:27:20.514Z,11.63
2018-01-04T02:29:59.715Z,9.37
2018-01-04T02:32:38.987Z,6.40
2018-01-04T02:35:18.008Z,4.63
2018-01-04T02:37:57.392Z,4.60
2018-01-04T02:40:36.687Z,9.90
2018-01-04T02:43:15.923Z,3.37
2018-01-04T02:45:55.968Z,6.47
2018-01-04T02:48:23.423Z,3.20
2018-01-04T02:50:50.876Z,5.87
2018-01-04T02:53:18.319Z,3.20
2018-01-04T02:55:45.790Z,1.70
2018-01-04T02:58:13.238Z,3.13
2018-01-04T03:00:40.685Z,6.70
2018-01-04T03:03:08.133Z,4.40
2018-01-04T03:05:35.593Z,4.17
2018-01-04T03:08:03.027Z,2.60
2018-01-04T03:10:30.526Z,3.60
2018-01-04T03:12:58.063Z,2.83
2018-01-04T03:15:25.495Z,2.47
2018-01-04T03:17:52.935Z,7.30
2018-01-04T03:20:20.375Z,4.60
2018-01-04T03:22:53.505Z,2.50
2018-01-04T03:25:26.443Z,5.43
2018-01-04T03:27:59.567Z,3.90
2018-01-04T03:30:32.569Z,2.13
2018-01-04T03:33:05.654Z,6.33
2018-01-04T03:38:52.881Z,3.07
2018-01-04T03:41:25.878Z,7.20
2018-01-04T03:43:58.965Z,6.93
2018-01-04T03:46:32.010Z,6.43
2018-01-04T03:49:05.039Z,3.17
2018-01-04T03:51:38.070Z,2.23
2018-01-04T03:54:11.015Z,8.87
2018-01-04T03:56:44.075Z,5.63
2018-01-04T03:59:17.112Z,12.73
2018-01-04T04:01:50.189Z,8.73
2018-01-04T04:04:23.247Z,8.83
2018-01-04T04:06:56.355Z,6.17
2018-01-04T04:09:23.814Z,7.13
2018-01-04T04:11:51.254Z,14.20
2018-01-04T04:14:18.710Z,22.00
2018-01-04T04:16:46.142Z,16.90
2018-01-04T04:19:13.602Z,15.33
2018-01-04T04:21:41.038Z,22.87
2018-01-04T04:24:08.498Z,9.50
2018-01-04T04:26:35.947Z,16.50
2018-01-04T04:29:03.450Z,28.67
2018-01-04T04:31:30.901Z,25.47
2018-01-04T04:33:58.361Z,14.70
2018-01-04T04:36:25.809Z,15.03
2018-01-04T04:38:53.338Z,9.27
2018-01-04T04:41:20.824Z,14.90
2018-01-04T04:43:48.296Z,14.20
2018-01-04T04:46:15.787Z,14.37
2018-01-04T04:48:43.217Z,14.93
2018-01-04T04:51:10.678Z,18.20
2018-01-04T04:53:38.126Z,17.07
2018-01-04T04:56:05.751Z,8.67
2018-01-04T04:58:33.189Z,15.67
2018-01-04T05:01:00.657Z,16.10
2018-01-04T05:03:28.131Z,13.50
2018-01-04T05:05:55.734Z,12.60
2018-01-04T05:08:23.167Z,8.70
2018-01-04T05:10:50.624Z,16.27
2018-01-04T05:13:18.067Z,14.77
2018-01-04T05:15:45.507Z,30.13
2018-01-04T05:18:12.987Z,42.03
2018-01-04T05:20:40.434Z,21.90
2018-01-04T05:23:07.918Z,37.53
2018-01-04T05:25:35.363Z,30.37
2018-01-04T05:28:02.836Z,17.47
2018-01-04T05:30:30.279Z,22.23
2018-01-04T05:32:57.755Z,19.37
2018-01-04T05:35:25.215Z,18.73
2018-01-04T05:37:52.665Z,10.20
2018-01-04T05:40:20.113Z,11.30
2018-01-04T05:42:47.655Z,14.93
2018-01-04T05:45:15.103Z,10.93
2018-01-04T05:47:42.571Z,9.83
2018-01-04T05:50:10.006Z,16.00
2018-01-04T05:52:37.467Z,9.43
2018-01-04T05:55:04.922Z,9.77
2018-01-04T05:57:32.393Z,13.20
2018-01-04T05:59:59.853Z,7.83
2018-01-04T06:02:27.288Z,12.10
2018-01-04T06:04:54.747Z,6.73
2018-01-04T06:07:22.194Z,10.13
2018-01-04T06:09:49.661Z,5.83
2018-01-04T06:12:17.107Z,23.07
2018-01-04T06:14:44.570Z,10.80
2018-01-04T06:17:12.027Z,5.70
2018-01-04T06:19:39.472Z,9.30
2018-01-04T06:22:06.908Z,14.00
2018-01-04T06:24:34.370Z,8.70
2018-01-04T06:27:01.810Z,7.03
2018-01-04T06:29:29.276Z,16.33
2018-01-04T06:31:56.711Z,6.70
2018-01-04T06:34:24.147Z,6.37
2018-01-04T06:36:51.607Z,10.77
2018-01-04T06:39:19.055Z,7.33
2018-01-04T06:41:46.612Z,11.10
2018-01-04T06:44:14.058Z,16.13
2018-01-04T06:46:41.628Z,8.70
2018-01-04T06:49:09.114Z,16.37
2018-01-04T06:51:36.577Z,16.63
2018-01-04T06:54:04.015Z,7.13
2018-01-04T06:56:31.486Z,13.97
2018-01-04T06:58:58.916Z,13.73
2018-01-04T07:01:26.355Z,13.63
2018-01-04T07:03:53.816Z,6.27
2018-01-04T07:06:21.259Z,7.27
2018-01-04T07:08:48.726Z,10.93
2018-01-04T07:11:16.176Z,9.67
2018-01-04T07:13:43.642Z,4.17
2018-01-04T07:16:11.105Z,12.97
2018-01-04T07:18:38.552Z,13.00
2018-01-04T07:21:06.020Z,4.20
2018-01-04T07:23:33.516Z,9.83
2018-01-04T07:26:00.955Z,4.43
2018-01-04T07:28:28.394Z,15.00
2018-01-04T07:30:55.855Z,4.10
2018-01-04T07:33:23.294Z,2.50
2018-01-04T07:35:50.754Z,3.80
2018-01-04T07:38:18.207Z,3.47
2018-01-04T07:40:45.674Z,6.60
2018-01-04T07:43:13.107Z,5.30
2018-01-04T07:45:40.568Z,5.37
2018-01-04T07:48:08.015Z,4.23
2018-01-04T07:50:35.486Z,6.00
2018-01-04T07:53:02.931Z,3.50
2018-01-04T07:55:30.396Z,6.63
2018-01-04T07:57:57.875Z,5.33
2018-01-04T08:00:25.428Z,4.80
2018-01-04T08:02:52.981Z,3.90
2018-01-04T08:05:20.414Z,2.70
2018-01-04T08:07:47.871Z,4.93
2018-01-04T08:10:15.311Z,3.27
2018-01-04T08:12:42.775Z,6.40
2018-01-04T08:15:10.213Z,6.17
2018-01-04T08:17:37.682Z,4.33
2018-01-04T08:20:05.139Z,2.13
2018-01-04T08:22:32.595Z,4.70
2018-01-04T08:25:00.042Z,7.10
2018-01-04T08:27:27.503Z,2.53
2018-01-04T08:29:55.015Z,1.57
2018-01-04T08:32:22.487Z,4.13
2018-01-04T08:34:49.928Z,4.43
2018-01-04T08:37:17.394Z,3.90
2018-01-04T08:39:44.838Z,6.30
2018-01-04T08:42:12.310Z,6.03
2018-01-04T08:44:39.747Z,7.13
2018-01-04T08:47:07.182Z,4.73
2018-01-04T08:49:35.156Z,3.27
2018-01-04T08:52:02.925Z,4.80
2018-01-04T08:54:30.499Z,4.30
2018-01-04T08:56:58.007Z,3.47
2018-01-04T08:59:25.453Z,5.87
2018-01-04T09:01:52.898Z,9.07
2018-01-04T09:04:20.361Z,3.70
2018-01-04T09:06:47.795Z,5.97
2018-01-04T09:09:15.334Z,2.97
2018-01-04T09:11:42.786Z,1.97
2018-01-04T09:14:10.243Z,3.87
2018-01-04T09:16:37.673Z,1.53
2018-01-04T09:19:05.171Z,1.57
2018-01-04T09:21:32.601Z,4.00
2018-01-04T09:24:00.047Z,2.60
2018-01-04T09:26:27.502Z,3.07
2018-01-04T09:28:54.983Z,8.43
2018-01-04T09:31:22.433Z,5.43
2018-01-04T09:33:49.917Z,3.97
2018-01-04T09:36:17.446Z,1.80
2018-01-04T09:38:44.900Z,2.30
2018-01-04T09:41:12.369Z,3.23
2018-01-04T09:43:39.812Z,3.40
2018-01-04T09:46:07.282Z,1.73
2018-01-04T09:48:34.743Z,2.33
2018-01-04T09:51:02.330Z,1.50
2018-01-04T09:53:29.842Z,1.10
2018-01-04T09:55:57.386Z,2.60
2018-01-04T09:58:24.848Z,2.67
2018-01-04T10:00:52.332Z,2.77
2018-01-04T10:03:19.788Z,1.67
2018-01-04T10:05:47.239Z,1.27
2018-01-04T10:08:14.721Z,1.53
2018-01-04T10:10:42.164Z,0.90
2018-01-04T10:13:09.629Z,0.97
2018-01-04T10:15:37.104Z,0.80
2018-01-04T10:18:04.558Z,1.27
2018-01-04T10:20:32.003Z,2.57
2018-01-04T10:22:59.478Z,2.87
2018-01-04T10:25:26.979Z,0.90
2018-01-04T10:27:54.423Z,3.43
2018-01-04T10:30:21.869Z,0.97
2018-01-04T10:32:49.307Z,1.00
2018-01-04T10:35:16.944Z,2.50
2018-01-04T10:37:44.402Z,1.50
2018-01-04T10:40:11.906Z,1.10
2018-01-04T10:42:39.346Z,1.67
2018-01-04T10:45:06.832Z,2.20
2018-01-04T10:47:34.256Z,2.27
2018-01-04T10:50:01.748Z,1.50
2018-01-04T10:52:29.208Z,1.47
2018-01-04T10:54:56.856Z,1.27
2018-01-04T10:57:24.315Z,1.20
2018-01-04T10:59:51.793Z,1.87
2018-01-04T11:02:19.252Z,1.70
2018-01-04T11:04:46.702Z,0.77
2018-01-04T11:07:14.420Z,8.13
2018-01-04T11:09:41.871Z,1.40
2018-01-04T11:12:09.387Z,3.23
2018-01-04T11:14:36.843Z,2.27
2018-01-04T11:17:04.461Z,2.00
2018-01-04T11:19:31.907Z,2.43
2018-01-04T11:21:59.379Z,2.97
2018-01-04T11:24:26.809Z,1.63
2018-01-04T11:26:54.303Z,1.87
2018-01-04T11:29:21.768Z,3.40
2018-01-04T11:31:49.240Z,0.87
2018-01-04T11:34:16.692Z,1.23
2018-01-04T11:36:44.130Z,1.03
2018-01-04T11:39:11.608Z,1.43
2018-01-04T11:41:39.044Z,2.20
2018-01-04T11:44:06.579Z,0.70
2018-01-04T11:46:34.029Z,1.00
2018-01-04T11:49:01.547Z,0.57
2018-01-04T11:51:28.992Z,1.50
2018-01-04T11:53:56.467Z,2.20
2018-01-04T11:56:23.906Z,1.10
2018-01-04T11:58:51.367Z,0.60
2018-01-04T12:01:18.793Z,1.00
2018-01-04T12:03:46.255Z,1.03
2018-01-04T12:06:13.732Z,2.20
2018-01-04T12:08:41.195Z,1.60
2018-01-04T12:11:08.640Z,2.40
2018-01-04T12:13:36.085Z,2.67
2018-01-04T12:16:03.559Z,3.20
2018-01-04T12:18:31.078Z,4.17
2018-01-04T12:20:58.535Z,3.37
2018-01-04T12:23:25.964Z,2.70
2018-01-04T12:25:53.409Z,5.53
2018-01-04T12:28:20.942Z,3.10
2018-01-04T12:30:48.401Z,1.80
2018-01-04T12:33:15.836Z,1.57
2018-01-04T12:35:43.296Z,2.00
2018-01-04T12:38:10.734Z,1.67
2018-01-04T12:40:38.199Z,4.80
2018-01-04T12:43:05.625Z,3.37
2018-01-04T12:45:33.087Z,2.93
2018-01-04T12:48:00.527Z,2.40
2018-01-04T12:50:27.998Z,2.27
2018-01-04T12:52:55.442Z,2.80
2018-01-04T12:55:22.912Z,2.70
2018-01-04T12:57:50.423Z,2.73
2018-01-04T13:00:17.874Z,2.10
2018-01-04T13:02:45.338Z,1.93
2018-01-04T13:05:12.779Z,1.73
2018-01-04T13:07:40.354Z,1.97
2018-01-04T13:10:07.793Z,3.30
2018-01-04T13:12:35.355Z,4.10
2018-01-04T13:15:02.800Z,6.07
2018-01-04T13:17:30.249Z,6.10
2018-01-04T13:19:57.689Z,8.07
2018-01-04T13:22:25.142Z,6.33
2018-01-04T13:24:52.589Z,3.17
2018-01-04T13:27:20.113Z,3.77
2018-01-04T13:29:47.575Z,3.20
2018-01-04T13:32:15.105Z,2.80
2018-01-04T13:34:42.658Z,2.60
2018-01-04T13:37:10.091Z,3.43
2018-01-04T13:39:37.570Z,3.30
2018-01-04T13:42:05.045Z,2.53
2018-01-04T13:44:32.587Z,2.90
2018-01-04T13:47:00.044Z,3.80
2018-01-04T13:49:27.499Z,4.13
2018-01-04T13:51:54.942Z,3.30
2018-01-04T13:54:22.404Z,2.87
2018-01-04T13:56:49.831Z,1.60
2018-01-04T13:59:17.299Z,0.90
2018-01-04T14:01:44.795Z,1.00
2018-01-04T14:04:12.256Z,1.70
2018-01-04T14:06:39.692Z,0.90
2018-01-04T14:09:07.120Z,3.47
2018-01-04T14:11:34.578Z,1.10
2018-01-04T14:14:02.016Z,1.10
2018-01-04T14:16:29.539Z,1.20
2018-01-04T14:18:56.976Z,6.73
2018-01-04T14:21:24.470Z,18.40
2018-01-04T14:23:51.996Z,8.33
2018-01-04T14:26:19.520Z,9.93
2018-01-04T14:28:46.975Z,26.97
2018-01-04T14:31:14.406Z,7.63
2018-01-04T14:33:41.870Z,11.03
2018-01-04T14:36:09.308Z,13.83
2018-01-04T14:38:36.833Z,15.90
2018-01-04T14:41:04.281Z,10.37
2018-01-04T14:43:31.776Z,22.13
2018-01-04T14:45:59.308Z,31.37
2018-01-04T14:48:26.791Z,113.53
2018-01-04T14:50:54.231Z,20.00
2018-01-04T14:53:21.688Z,8.73
2018-01-04T14:55:49.158Z,9.80
2018-01-04T14:58:16.593Z,11.13
2018-01-04T15:00:44.171Z,22.60
2018-01-04T15:03:11.608Z,12.93
2018-01-04T15:05:39.057Z,10.43
2018-01-04T15:08:06.509Z,8.83
2018-01-04T15:10:33.970Z,14.00
2018-01-04T15:13:01.446Z,11.10
2018-01-04T15:15:28.874Z,9.67
2018-01-04T15:17:56.310Z,14.30
2018-01-04T15:20:23.877Z,11.90
2018-01-04T15:22:51.335Z,7.60
2018-01-04T15:25:18.798Z,7.20
2018-01-04T15:27:46.239Z,6.00
2018-01-04T15:30:13.707Z,2.93
2018-01-04T15:32:41.158Z,1.77
2018-01-04T15:35:08.612Z,1.97
2018-01-04T15:37:36.049Z,1.63
2018-01-04T15:40:03.490Z,3.07
2018-01-04T15:42:30.950Z,2.70
2018-01-04T15:44:58.406Z,13.73
2018-01-04T15:47:25.856Z,11.83
2018-01-04T15:49:53.293Z,10.13
2018-01-04T15:52:20.904Z,11.80
2018-01-04T15:54:48.306Z,13.33
2018-01-04T15:57:15.858Z,11.63
2018-01-04T15:59:43.324Z,10.40
2018-01-04T16:02:10.879Z,11.53
2018-01-04T16:04:38.305Z,8.37
2018-01-04T16:07:05.797Z,14.53
2018-01-04T16:09:33.255Z,16.53
2018-01-04T16:12:00.705Z,11.30
2018-01-04T16:14:28.161Z,12.80
2018-01-04T16:16:55.593Z,13.43
2018-01-04T16:19:23.067Z,41.50
2018-01-04T16:21:50.511Z,23.37
2018-01-04T16:24:17.980Z,16.83
2018-01-04T16:26:45.431Z,12.80
2018-01-04T16:29:12.880Z,19.13
2018-01-04T16:31:40.361Z,57.00
2018-01-04T16:34:07.816Z,51.57
2018-01-04T16:36:35.280Z,19.53
2018-01-04T16:39:02.747Z,17.37
2018-01-04T16:41:30.239Z,12.50
2018-01-04T16:43:57.747Z,12.10
2018-01-04T16:46:25.202Z,11.00
2018-01-04T16:48:52.686Z,12.93
2018-01-04T16:51:20.117Z,10.57
2018-01-04T16:53:47.585Z,8.47
2018-01-04T16:56:15.039Z,11.10
2018-01-04T16:58:42.476Z,10.77
2018-01-04T17:01:09.940Z,12.60
2018-01-04T17:03:37.407Z,16.23
2018-01-04T17:06:04.866Z,11.93
2018-01-04T17:08:32.323Z,17.27
2018-01-04T17:10:59.844Z,24.77
2018-01-04T17:13:27.314Z,27.83
2018-01-04T17:15:54.772Z,20.90
2018-01-04T17:18:22.291Z,18.83
2018-01-04T17:20:49.825Z,10.00
2018-01-04T17:23:17.273Z,6.93
2018-01-04T17:25:44.750Z,5.40
2018-01-04T17:28:12.199Z,4.90
2018-01-04T17:30:39.658Z,4.00
2018-01-04T17:33:07.145Z,4.13
2018-01-04T17:35:34.578Z,3.07
2018-01-04T17:38:02.055Z,7.00
2018-01-04T17:40:29.627Z,15.93
2018-01-04T17:42:57.091Z,8.67
2018-01-04T17:45:24.539Z,14.83
2018-01-04T17:47:52.071Z,8.40
2018-01-04T17:50:19.584Z,7.50
2018-01-04T17:52:47.092Z,5.80
2018-01-04T17:55:14.599Z,9.50
2018-01-04T17:57:42.156Z,9.50
2018-01-04T18:00:09.604Z,6.20
2018-01-04T18:02:37.075Z,5.63
2018-01-04T18:05:04.545Z,5.90
2018-01-04T18:07:32.044Z,6.90
2018-01-04T18:09:59.538Z,5.10
2018-01-04T18:12:27.010Z,4.80
2018-01-04T18:14:54.481Z,1.80
2018-01-04T18:17:21.917Z,1.53
2018-01-04T18:19:49.417Z,1.10
2018-01-04T18:22:16.913Z,0.60
2018-01-04T18:24:44.398Z,0.80
2018-01-04T18:27:11.891Z,0.80
2018-01-04T18:29:39.355Z,0.53
2018-01-04T18:32:06.798Z,0.50
2018-01-04T18:34:34.271Z,0.73
2018-01-04T18:37:01.710Z,0.47
2018-01-04T18:39:29.227Z,1.30
2018-01-04T18:41:56.691Z,0.60
2018-01-04T18:44:24.138Z,0.40
2018-01-04T18:46:51.604Z,0.40
2018-01-04T18:49:19.084Z,1.43
2018-01-04T18:51:46.566Z,1.40
2018-01-04T18:54:14.065Z,0.90
2018-01-04T18:56:41.590Z,2.80
2018-01-04T18:59:09.058Z,0.80
2018-01-04T19:01:36.595Z,1.00
2018-01-04T19:04:04.049Z,0.83
2018-01-04T19:06:31.540Z,2.20
2018-01-04T19:08:59.002Z,1.80
2018-01-04T19:11:26.463Z,0.70
2018-01-04T19:13:53.939Z,0.90
2018-01-04T19:16:21.408Z,0.67
2018-01-04T19:18:48.879Z,2.20
2018-01-04T19:21:16.355Z,1.20
2018-01-04T19:23:43.807Z,1.00
2018-01-04T19:26:11.315Z,1.20
2018-01-04T19:28:38.791Z,1.37
2018-01-04T19:31:06.314Z,1.30
2018-01-04T19:33:33.764Z,2.30
2018-01-04T19:36:01.194Z,3.10
2018-01-04T19:38:28.662Z,2.60
2018-01-04T19:40:56.148Z,1.23
2018-01-04T19:43:23.597Z,1.20
2018-01-04T19:45:51.039Z,1.20
2018-01-04T19:48:18.511Z,1.73
2018-01-04T19:50:45.951Z,9.60
2018-01-04T19:53:13.402Z,2.40
2018-01-04T19:55:40.862Z,4.63
2018-01-04T19:58:08.331Z,15.80
2018-01-04T20:00:35.797Z,11.73
2018-01-04T20:03:03.254Z,4.70
2018-01-04T20:05:30.811Z,8.47
2018-01-04T20:07:58.258Z,15.13
2018-01-04T20:10:25.733Z,15.87
2018-01-04T20:12:53.165Z,10.40
2018-01-04T20:15:20.647Z,17.00
2018-01-04T20:17:48.089Z,14.30
2018-01-04T20:20:15.536Z,13.17
2018-01-04T20:22:43.008Z,16.30
2018-01-04T20:25:10.478Z,12.00
2018-01-04T20:27:37.955Z,18.50
2018-01-04T20:30:05.403Z,12.67
2018-01-04T20:32:32.919Z,11.23
2018-01-04T20:35:00.386Z,14.50
2018-01-04T20:37:27.860Z,10.03
2018-01-04T20:39:55.324Z,10.80
2018-01-04T20:42:22.863Z,18.27
2018-01-04T20:44:50.448Z,18.17
2018-01-04T20:47:17.930Z,9.77
2018-01-04T20:49:45.449Z,16.53
2018-01-04T20:52:12.999Z,17.80
2018-01-04T20:54:40.455Z,17.23
2018-01-04T20:57:08.019Z,20.17
2018-01-04T20:59:35.487Z,12.23
2018-01-04T21:02:02.936Z,17.43
2018-01-04T21:04:30.407Z,12.43
2018-01-04T21:06:57.852Z,18.53
2018-01-04T21:09:25.346Z,17.20
2018-01-04T21:11:52.784Z,13.53
2018-01-04T21:14:20.300Z,17.67
2018-01-04T21:16:47.760Z,21.37
2018-01-04T21:19:15.258Z,14.13
2018-01-04T21:21:42.719Z,21.93
2018-01-04T21:24:10.229Z,17.67
2018-01-04T21:26:37.695Z,13.60
2018-01-04T21:29:05.146Z,16.60
2018-01-04T21:31:32.628Z,15.13
2018-01-04T21:34:00.084Z,21.10
2018-01-04T21:36:27.678Z,14.90
2018-01-04T21:38:55.143Z,10.50
2018-01-04T21:41:22.628Z,12.13
2018-01-04T21:43:50.080Z,13.60
2018-01-04T21:46:17.536Z,8.03
2018-01-04T21:48:45.160Z,11.33
2018-01-04T21:51:13.281Z,18.37
2018-01-04T21:53:41.530Z,16.60
2018-01-04T21:56:09.266Z,11.20
2018-01-04T21:58:36.706Z,13.37
2018-01-04T22:01:04.415Z,11.63
2018-01-04T22:03:32.162Z,7.00
2018-01-04T22:05:59.623Z,15.07
2018-01-04T22:08:28.039Z,24.23
2018-01-04T22:10:56.417Z,10.57
2018-01-04T22:13:24.594Z,17.10
2018-01-04T22:15:52.793Z,8.30
2018-01-04T22:18:20.997Z,16.10
2018-01-04T22:20:49.273Z,11.63
2018-01-04T22:23:17.495Z,20.87
2018-01-04T22:25:44.947Z,8.97
2018-01-04T22:28:12.416Z,7.70
2018-01-04T22:30:39.908Z,10.87
2018-01-04T22:33:08.795Z,17.23
2018-01-04T22:35:36.269Z,9.60
2018-01-04T22:38:03.813Z,12.43
2018-01-04T22:40:31.260Z,9.23
2018-01-04T22:42:58.737Z,15.13
2018-01-04T22:45:26.191Z,7.50
2018-01-04T22:47:53.680Z,6.80
2018-01-04T22:50:21.163Z,22.63
2018-01-04T22:52:48.589Z,9.70
2018-01-04T22:55:16.155Z,8.20
2018-01-04T22:57:43.616Z,18.47
2018-01-04T23:00:11.084Z,17.50
2018-01-04T23:02:38.550Z,10.00
2018-01-04T23:05:06.062Z,8.80
2018-01-04T23:07:33.545Z,15.97
2018-01-04T23:10:01.028Z,7.33
2018-01-04T23:12:28.511Z,13.63
2018-01-04T23:14:56.020Z,9.60
2018-01-04T23:17:23.473Z,14.23
2018-01-04T23:19:50.943Z,11.03
2018-01-04T23:22:18.397Z,13.53
2018-01-04T23:24:45.859Z,20.83
2018-01-04T23:27:13.286Z,8.33
2018-01-04T23:29:40.732Z,6.60
2018-01-04T23:32:08.175Z,15.27
2018-01-04T23:34:35.652Z,7.83
2018-01-04T23:37:03.096Z,9.47
2018-01-04T23:39:30.567Z,6.53
2018-01-04T23:41:58.019Z,18.30
2018-01-04T23:44:25.467Z,12.03
2018-01-04T23:46:52.936Z,13.60
2018-01-04T23:49:20.398Z,27.50
2018-01-04T23:51:47.850Z,20.57
2018-01-04T23:54:15.277Z,16.23
2018-01-04T23:56:42.729Z,8.17
2018-01-04T23:59:10.177Z,12.37
